Time;durP1;ratioP1;P1;durP2;ratioP2;P2;SDS_P1;SDS_P2;PMS_P1;PMS_P2;Temp;Humidity;BMP_temperature;BMP_pressure;BME280_temperature;BME280_humidity;BME280_pressure;Samples;Min_cycle;Max_cycle;Signal;HPM_P1;HPM_P2
2022/10/08 00:01:08;;;;;;;11.27;2.15;;;;;;;10.84;100.00;101690.78;5052358;28;20101;-84
2022/10/08 00:03:36;;;;;;;8.88;1.80;;;;;;;10.87;100.00;101693.19;5053088;28;20079;-83
2022/10/08 00:06:06;;;;;;;11.45;1.90;;;;;;;10.86;100.00;101696.81;5053200;28;20128;-84
2022/10/08 00:08:37;;;;;;;8.05;2.05;;;;;;;10.87;100.00;101695.03;5052521;28;20052;-84
2022/10/08 00:11:09;;;;;;;15.87;2.10;;;;;;;10.88;100.00;101702.88;5053701;28;20086;-84
2022/10/08 00:13:40;;;;;;;7.30;1.83;;;;;;;10.88;100.00;101705.56;5055050;28;20021;-84
2022/10/08 00:16:14;;;;;;;12.27;1.95;;;;;;;10.87;100.00;101701.19;5055199;28;20021;-85
2022/10/08 00:18:43;;;;;;;13.85;2.13;;;;;;;10.88;100.00;101688.72;5054965;28;20104;-84
2022/10/08 00:21:20;;;;;;;8.57;2.08;;;;;;;10.89;100.00;101704.56;5053903;28;20025;-85
2022/10/08 00:23:47;;;;;;;8.77;2.00;;;;;;;10.90;100.00;101708.09;5054159;28;20037;-85
2022/10/08 00:26:14;;;;;;;4.93;1.85;;;;;;;10.92;100.00;101708.81;5053540;28;20048;-86
2022/10/08 00:28:44;;;;;;;8.85;2.10;;;;;;;10.94;100.00;101702.41;5053952;28;20529;-88
2022/10/08 00:31:18;;;;;;;9.48;2.38;;;;;;;10.96;100.00;101704.94;5069777;28;20040;-88
2022/10/08 00:33:44;;;;;;;8.70;2.00;;;;;;;10.98;100.00;101712.81;5052391;28;20120;-87
2022/10/08 00:36:11;;;;;;;8.27;1.95;;;;;;;10.98;100.00;101712.81;5053646;28;20116;-88
2022/10/08 00:38:37;;;;;;;10.85;2.10;;;;;;;10.96;100.00;101707.59;5052440;28;20512;-88
2022/10/08 00:41:05;;;;;;;9.75;2.28;;;;;;;10.98;100.00;101712.81;5054386;28;20032;-88
2022/10/08 00:43:45;;;;;;;11.10;2.22;;;;;;;10.97;100.00;101719.09;5053639;28;20033;-87
2022/10/08 00:46:25;;;;;;;7.95;1.90;;;;;;;10.95;100.00;101713.88;5053453;28;20107;-86
2022/10/08 00:49:00;;;;;;;9.38;2.20;;;;;;;10.93;100.00;101710.50;5054340;28;20033;-85
2022/10/08 00:51:25;;;;;;;7.55;1.80;;;;;;;10.90;100.00;101711.59;5053863;28;20115;-89
2022/10/08 00:53:51;;;;;;;10.27;1.92;;;;;;;10.85;100.00;101708.47;5053825;28;20120;-86
2022/10/08 00:56:17;;;;;;;12.13;2.47;;;;;;;10.85;100.00;101718.22;5054009;28;20075;-86
2022/10/08 00:58:43;;;;;;;7.15;1.90;;;;;;;10.81;100.00;101717.63;5052466;28;20033;-85
2022/10/08 01:01:09;;;;;;;11.20;2.20;;;;;;;10.82;100.00;101710.50;5052833;28;20087;-87
2022/10/08 01:03:35;;;;;;;11.27;2.05;;;;;;;10.82;100.00;101710.50;5053620;28;20477;-85
2022/10/08 01:06:17;;;;;;;10.98;1.73;;;;;;;10.82;100.00;101714.00;5053469;28;20488;-84
2022/10/08 01:09:23;;;;;;;8.52;1.80;;;;;;;10.81;100.00;101712.31;5053724;28;20397;-85
2022/10/08 01:11:55;;;;;;;11.73;1.92;;;;;;;10.80;100.00;101717.75;5055523;28;20063;-84
2022/10/08 01:14:38;;;;;;;15.13;2.33;;;;;;;10.80;100.00;101710.59;5057234;28;20039;-85
2022/10/08 01:17:26;;;;;;;9.30;1.90;;;;;;;10.79;100.00;101716.06;5073438;28;20037;-84
2022/10/08 01:20:14;;;;;;;11.93;1.95;;;;;;;10.72;100.00;101713.88;5057867;28;20029;-84
2022/10/08 01:23:08;;;;;;;7.10;1.77;;;;;;;10.62;100.00;101714.72;5056743;28;20033;-84
2022/10/08 01:25:45;;;;;;;10.68;2.50;;;;;;;10.53;100.00;101711.78;5056646;28;20313;-84
2022/10/08 01:28:20;;;;;;;14.27;2.65;;;;;;;10.46;100.00;101713.19;5056994;28;20029;-84
2022/10/08 01:31:08;;;;;;;10.85;1.88;;;;;;;10.41;100.00;101715.38;5072321;28;20040;-85
2022/10/08 01:33:55;;;;;;;12.82;2.22;;;;;;;10.38;100.00;101711.13;5056665;28;20029;-84
2022/10/08 01:36:22;;;;;;;13.88;2.20;;;;;;;10.30;100.00;101720.63;5072575;28;20033;-84
2022/10/08 01:38:53;;;;;;;17.17;2.65;;;;;;;10.23;100.00;101714.94;5057902;28;20063;-84
2022/10/08 01:41:23;;;;;;;15.10;2.17;;;;;;;10.16;100.00;101719.84;5057924;28;20028;-85
2022/10/08 01:43:57;;;;;;;13.13;1.98;;;;;;;10.15;100.00;101710.19;5056514;28;20485;-84
2022/10/08 01:46:27;;;;;;;12.45;1.88;;;;;;;10.18;100.00;101717.06;5057387;28;20033;-85
2022/10/08 01:48:56;;;;;;;15.52;2.47;;;;;;;10.17;100.00;101718.06;5059039;28;20043;-84
2022/10/08 01:51:31;;;;;;;7.88;1.60;;;;;;;10.17;100.00;101718.06;5058966;28;20091;-87
2022/10/08 01:53:58;;;;;;;10.07;1.80;;;;;;;10.14;100.00;101716.47;5059832;28;20026;-87
2022/10/08 01:56:27;;;;;;;10.15;1.80;;;;;;;10.10;100.00;101717.66;5061209;28;20040;-86
2022/10/08 01:59:17;;;;;;;10.63;1.98;;;;;;;10.10;100.00;101720.31;5057295;28;20029;-88
2022/10/08 02:02:00;;;;;;;10.80;1.88;;;;;;;10.11;100.00;101723.84;5056849;28;20033;-87
2022/10/08 02:04:35;;;;;;;8.07;1.60;;;;;;;10.10;100.00;101720.31;5056151;28;20029;-88
2022/10/08 02:07:16;;;;;;;9.75;1.60;;;;;;;10.10;100.00;101722.13;5055928;28;20049;-85
2022/10/08 02:10:00;;;;;;;17.77;2.77;;;;;;;10.06;100.00;101727.66;5056230;28;20121;-88
2022/10/08 02:12:25;;;;;;;10.77;2.05;;;;;;;10.02;100.00;101722.69;5054392;28;20029;-89
2022/10/08 02:14:53;;;;;;;13.65;1.83;;;;;;;9.99;100.00;101721.09;5055444;28;20033;-85
2022/10/08 02:17:19;;;;;;;10.18;1.63;;;;;;;9.99;100.00;101728.25;5055260;28;20103;-87
2022/10/08 02:19:56;;;;;;;9.27;1.60;;;;;;;10.03;100.00;101735.00;5071510;28;20424;-87
2022/10/08 02:22:31;;;;;;;8.82;1.88;;;;;;;10.16;100.00;101729.63;5054761;28;20033;-88
2022/10/08 02:25:25;;;;;;;18.20;2.22;;;;;;;10.29;100.00;101734.91;5055919;28;20430;-87
2022/10/08 02:28:16;;;;;;;11.65;1.77;;;;;;;10.38;100.00;101737.72;5028980;28;20489;-86
2022/10/08 02:30:52;;;;;;;11.05;2.17;;;;;;;10.40;100.00;101734.94;5054835;28;20040;-86
2022/10/08 02:33:31;;;;;;;7.68;1.60;;;;;;;10.31;100.00;101733.78;5054888;28;20035;-86
2022/10/08 02:36:01;;;;;;;7.45;2.20;;;;;;;10.22;100.00;101731.84;5055077;28;20043;-86
2022/10/08 02:38:34;;;;;;;7.72;1.65;;;;;;;10.14;100.00;101735.06;5070207;28;20028;-88
2022/10/08 02:41:02;;;;;;;11.52;2.20;;;;;;;10.05;100.00;101739.25;5070458;28;20024;-88
2022/10/08 02:43:32;;;;;;;9.57;1.90;;;;;;;9.99;100.00;101738.88;5054520;28;20052;-85
2022/10/08 02:46:03;;;;;;;13.60;1.90;;;;;;;9.94;100.00;101736.56;5055095;28;20148;-86
2022/10/08 02:48:32;;;;;;;10.35;1.60;;;;;;;9.86;100.00;101744.25;5054816;28;20033;-86
2022/10/08 02:51:09;;;;;;;9.05;1.48;;;;;;;9.79;100.00;101740.31;5054321;28;20109;-84
2022/10/08 02:53:36;;;;;;;10.00;1.60;;;;;;;9.74;100.00;101745.97;5054374;28;20028;-85
2022/10/08 02:56:09;;;;;;;9.15;2.85;;;;;;;9.71;100.00;101748.88;5054792;28;20115;-85
2022/10/08 02:58:35;;;;;;;7.18;1.70;;;;;;;9.71;100.00;101755.00;5054626;28;20037;-84
2022/10/08 03:01:03;;;;;;;8.38;1.63;;;;;;;9.72;100.00;101755.88;5053386;28;20450;-84
2022/10/08 03:03:36;;;;;;;8.55;1.73;;;;;;;9.76;100.00;101756.50;5069824;28;20037;-86
2022/10/08 03:06:05;;;;;;;4.70;1.40;;;;;;;9.85;100.00;101753.16;5069911;28;20449;-85
2022/10/08 03:08:33;;;;;;;5.53;1.58;;;;;;;9.97;100.00;101764.72;5054596;28;20055;-85
2022/10/08 03:10:59;;;;;;;11.13;2.15;;;;;;;10.04;100.00;101761.47;5069513;28;20130;-84
2022/10/08 03:13:26;;;;;;;7.35;1.33;;;;;;;10.08;100.00;101767.44;5052495;28;20397;-85
2022/10/08 03:15:53;;;;;;;7.53;1.58;;;;;;;10.10;100.00;101760.19;5053821;28;20036;-85
2022/10/08 03:18:23;;;;;;;12.60;1.77;;;;;;;10.14;100.00;101763.50;5069241;28;20029;-86
2022/10/08 03:20:53;;;;;;;7.45;1.50;;;;;;;10.15;100.00;101768.69;5054231;28;20474;-85
2022/10/08 03:23:18;;;;;;;7.30;1.50;;;;;;;10.10;100.00;101773.50;5052676;28;20452;-86
2022/10/08 03:25:44;;;;;;;5.40;1.65;;;;;;;10.10;100.00;101765.50;5054691;28;20060;-87
2022/10/08 03:28:10;;;;;;;7.95;1.65;;;;;;;10.13;100.00;101764.44;5053847;28;20103;-87
2022/10/08 03:30:35;;;;;;;7.30;1.52;;;;;;;10.21;100.00;101772.69;5052723;28;20067;-86
2022/10/08 03:33:01;;;;;;;7.35;1.58;;;;;;;10.29;100.00;101775.63;5053994;28;20033;-85
2022/10/08 03:35:26;;;;;;;7.53;1.80;;;;;;;10.32;100.00;101772.75;5052575;28;20116;-86
2022/10/08 03:37:52;;;;;;;7.45;1.55;;;;;;;10.36;100.00;101778.69;5069207;28;20041;-87
2022/10/08 03:40:19;;;;;;;8.98;1.65;;;;;;;10.33;100.00;101781.56;5053876;28;20083;-87
2022/10/08 03:42:45;;;;;;;9.90;1.77;;;;;;;10.29;100.00;101780.97;5052428;28;20037;-87
2022/10/08 03:45:10;;;;;;;8.18;1.27;;;;;;;10.26;100.00;101781.19;5052512;28;20037;-87
2022/10/08 03:47:35;;;;;;;8.45;1.67;;;;;;;10.31;100.00;101783.50;5053191;28;20037;-87
2022/10/08 03:50:01;;;;;;;9.73;1.52;;;;;;;10.37;100.00;101797.22;5054125;28;20494;-87
2022/10/08 03:52:29;;;;;;;8.48;1.65;;;;;;;10.43;100.00;101793.25;5052839;28;20037;-90
2022/10/08 03:54:54;;;;;;;6.18;1.35;;;;;;;10.43;100.00;101797.72;5054210;28;20115;-89
2022/10/08 03:57:19;;;;;;;10.48;2.03;;;;;;;10.41;100.00;101806.66;5054773;28;20091;-88
2022/10/08 03:59:45;;;;;;;8.15;1.70;;;;;;;10.33;100.00;101794.88;5052467;28;20052;-87
2022/10/08 04:02:10;;;;;;;9.93;1.25;;;;;;;10.27;100.00;101795.31;5052543;28;20032;-88
2022/10/08 04:04:35;;;;;;;8.40;1.63;;;;;;;10.23;100.00;101810.69;5052133;28;20462;-87
2022/10/08 04:07:01;;;;;;;11.35;1.58;;;;;;;10.16;100.00;101809.44;5068765;28;20516;-88
2022/10/08 04:09:26;;;;;;;4.75;1.30;;;;;;;10.12;100.00;101810.59;5070402;28;20130;-87
2022/10/08 04:11:52;;;;;;;6.30;1.52;;;;;;;10.07;100.00;101819.75;5068367;28;20055;-88
2022/10/08 04:14:17;;;;;;;5.22;1.10;;;;;;;10.05;100.00;101816.38;5081128;28;20029;-88
2022/10/08 04:16:43;;;;;;;9.85;1.23;;;;;;;10.04;100.00;101821.81;5080927;28;20103;-88
2022/10/08 04:19:10;;;;;;;13.52;1.48;;;;;;;10.00;100.00;101813.22;5063402;28;20044;-87
2022/10/08 04:21:36;;;;;;;4.00;1.10;;;;;;;10.03;100.00;101817.44;5054832;28;20052;-87
2022/10/08 04:24:14;;;;;;;;;;;;;;;;;;;;;
2022/10/08 04:26:50;;;;;;;;;;;;;;;;;;;;;
2022/10/08 04:29:15;;;;;;;5.72;1.52;;;;;;;10.06;100.00;101827.84;5054215;28;20036;-87
2022/10/08 04:31:41;;;;;;;7.00;1.40;;;;;;;10.11;100.00;101820.41;5053772;28;20029;-87
2022/10/08 04:34:18;;;;;;;12.18;1.88;;;;;;;10.14;100.00;101824.66;5053525;28;20070;-86
2022/10/08 04:36:44;;;;;;;7.80;2.00;;;;;;;10.12;100.00;101824.78;5069550;28;20045;-87
2022/10/08 04:39:12;;;;;;;6.10;1.23;;;;;;;10.09;100.00;101827.66;5053087;28;20466;-87
2022/10/08 04:41:43;;;;;;;10.80;1.20;;;;;;;9.99;100.00;101823.97;5053608;28;20043;-87
2022/10/08 04:44:08;;;;;;;12.20;1.95;;;;;;;9.92;100.00;101833.34;5054635;28;20112;-85
2022/10/08 04:46:36;;;;;;;11.90;1.45;;;;;;;9.89;100.00;101835.22;5056667;28;20083;-86
2022/10/08 04:49:09;;;;;;;7.78;1.33;;;;;;;9.93;100.00;101835.00;5060736;28;20427;-87
2022/10/08 04:51:35;;;;;;;10.50;1.67;;;;;;;9.95;100.00;101835.78;5074065;28;20040;-84
2022/10/08 04:54:00;;;;;;;6.80;1.50;;;;;;;9.98;100.00;101847.03;5057019;28;20029;-86
2022/10/08 04:56:35;;;;;;;6.28;1.60;;;;;;;10.00;100.00;101839.81;5072286;28;20048;-86
2022/10/08 04:59:03;;;;;;;5.38;1.30;;;;;;;9.94;100.00;101839.38;5055847;28;20040;-86
2022/10/08 05:01:29;;;;;;;7.45;1.40;;;;;;;9.92;100.00;101846.63;5056629;28;20025;-87
2022/10/08 05:03:56;;;;;;;10.45;1.33;;;;;;;9.91;100.00;101855.56;5056426;28;20036;-83
2022/10/08 05:06:26;;;;;;;9.60;1.70;;;;;;;9.91;100.00;101855.56;5054945;28;20061;-87
2022/10/08 05:09:02;;;;;;;9.50;1.42;;;;;;;9.86;100.00;101856.72;5056786;28;20040;-87
2022/10/08 05:11:29;;;;;;;4.80;1.20;;;;;;;9.92;100.00;101866.06;5055277;28;20032;-86
2022/10/08 05:13:57;;;;;;;4.57;0.93;;;;;;;9.95;100.00;101865.84;5054874;28;20025;-87
2022/10/08 05:16:26;;;;;;;5.30;1.27;;;;;;;9.93;100.00;101867.78;5056234;28;20025;-86
2022/10/08 05:18:54;;;;;;;4.40;1.10;;;;;;;9.93;100.00;101869.56;5056291;28;20033;-88
2022/10/08 05:21:25;;;;;;;4.32;1.10;;;;;;;9.96;100.00;101880.00;5055723;28;20039;-87
2022/10/08 05:24:03;;;;;;;11.32;1.42;;;;;;;9.99;100.00;101885.94;5056259;28;20035;-87
2022/10/08 05:26:40;;;;;;;7.40;1.73;;;;;;;10.00;100.00;101881.47;5056231;28;20048;-87
2022/10/08 05:29:06;;;;;;;8.07;2.03;;;;;;;10.01;100.00;101883.19;5055305;28;20083;-87
2022/10/08 05:31:37;;;;;;;3.97;1.17;;;;;;;10.02;100.00;101884.88;5055570;28;20029;-91
2022/10/08 05:34:03;;;;;;;10.35;2.40;;;;;;;9.97;100.00;101881.69;5055857;28;20051;-86
2022/10/08 05:36:31;;;;;;;12.88;2.08;;;;;;;9.91;100.00;101893.59;5055546;28;20108;-86
2022/10/08 05:39:05;;;;;;;9.63;1.45;;;;;;;9.91;100.00;101892.75;5055823;28;20477;-86
2022/10/08 05:41:33;;;;;;;6.05;1.40;;;;;;;9.98;100.00;101894.88;5055791;28;20036;-86
2022/10/08 05:44:00;;;;;;;8.88;1.52;;;;;;;10.04;100.00;101897.09;5055462;28;20033;-86
2022/10/08 05:46:27;;;;;;;11.27;1.42;;;;;;;10.10;100.00;101905.59;5071064;28;20104;-85
2022/10/08 05:48:55;;;;;;;8.02;1.27;;;;;;;10.10;100.00;101905.59;5056090;28;20043;-86
2022/10/08 05:51:23;;;;;;;6.13;1.40;;;;;;;10.06;100.00;101910.28;5055754;28;20032;-86
2022/10/08 05:53:51;;;;;;;4.55;1.30;;;;;;;10.05;100.00;101909.44;5054280;28;20036;-84
2022/10/08 05:56:20;;;;;;;7.72;1.42;;;;;;;10.07;100.00;101910.16;5070800;28;20478;-85
2022/10/08 05:58:46;;;;;;;2.90;0.95;;;;;;;10.14;100.00;101921.22;5053169;28;20025;-85
2022/10/08 06:01:24;;;;;;;3.05;1.05;;;;;;;10.20;100.00;101925.28;5070385;28;20044;-85
2022/10/08 06:03:51;;;;;;;9.05;1.38;;;;;;;10.25;100.00;101933.75;5055168;28;20484;-85
2022/10/08 06:06:18;;;;;;;6.30;1.00;;;;;;;10.28;100.00;101932.69;5054655;28;20057;-84
2022/10/08 06:08:43;;;;;;;7.68;1.25;;;;;;;10.32;100.00;101942.16;5053613;28;20033;-85
2022/10/08 06:11:09;;;;;;;8.63;1.27;;;;;;;10.34;100.00;101951.72;5055115;28;20432;-84
2022/10/08 06:13:34;;;;;;;12.15;1.58;;;;;;;10.38;100.00;101947.91;5054950;28;20032;-83
2022/10/08 06:16:03;;;;;;;8.35;1.40;;;;;;;10.44;100.00;101957.25;5054365;28;20033;-85
2022/10/08 06:18:31;;;;;;;7.43;1.65;;;;;;;10.46;100.00;101963.31;5055314;28;20062;-83
2022/10/08 06:21:01;;;;;;;7.25;1.20;;;;;;;10.43;100.00;101962.69;5055370;28;20457;-84
2022/10/08 06:23:26;;;;;;;11.55;1.40;;;;;;;10.39;100.00;101965.56;5054412;28;20040;-87
2022/10/08 06:25:52;;;;;;;6.35;1.42;;;;;;;10.46;100.00;101978.44;5054566;28;20037;-85
2022/10/08 06:28:17;;;;;;;8.13;1.42;;;;;;;10.51;100.00;101986.91;5053846;28;20037;-84
2022/10/08 06:30:42;;;;;;;8.77;1.58;;;;;;;10.52;100.00;101981.50;5053457;28;20044;-84
2022/10/08 06:33:09;;;;;;;5.13;1.35;;;;;;;10.53;100.00;101985.84;5053829;28;20029;-86
2022/10/08 06:35:35;;;;;;;4.68;1.50;;;;;;;10.52;100.00;101986.81;5054514;28;20358;-84
2022/10/08 06:38:01;;;;;;;6.78;1.40;;;;;;;10.49;100.00;101999.50;5053720;28;20466;-87
2022/10/08 06:40:29;;;;;;;10.48;1.42;;;;;;;10.46;100.00;102011.19;5054378;28;20033;-79
2022/10/08 06:42:55;;;;;;;8.90;1.40;;;;;;;10.47;100.00;102012.06;5053622;28;20142;-68
2022/10/08 06:45:20;;;;;;;6.70;1.88;;;;;;;10.51;100.00;102013.53;5054486;28;20425;-80
2022/10/08 06:47:45;;;;;;;5.90;1.23;;;;;;;10.51;100.00;102016.19;5069783;28;20029;-75
2022/10/08 06:50:11;;;;;;;5.28;2.03;;;;;;;10.48;100.00;102017.28;5054326;28;20056;-79
2022/10/08 06:52:36;;;;;;;7.55;1.20;;;;;;;10.45;100.00;102019.28;5054201;28;20025;-79
2022/10/08 06:55:01;;;;;;;5.25;1.13;;;;;;;10.47;100.00;102025.38;5052808;28;20135;-80
2022/10/08 06:57:27;;;;;;;8.73;1.60;;;;;;;10.43;100.00;102016.75;5054195;28;20158;-80
2022/10/08 06:59:53;;;;;;;5.72;1.38;;;;;;;10.41;100.00;102026.66;5053427;28;20051;-78
2022/10/08 07:02:19;;;;;;;8.80;1.42;;;;;;;10.38;100.00;102017.06;5054120;28;20041;-74
2022/10/08 07:04:45;;;;;;;7.55;1.73;;;;;;;10.41;100.00;102032.81;5054691;28;20036;-74
2022/10/08 07:07:10;;;;;;;9.95;2.00;;;;;;;10.46;100.00;102034.31;5054287;28;20049;-77
2022/10/08 07:09:36;;;;;;;5.10;1.27;;;;;;;10.57;100.00;102035.25;5053792;28;20036;-66
2022/10/08 07:12:01;;;;;;;7.28;1.40;;;;;;;10.68;100.00;102036.28;5053867;28;20082;-66
2022/10/08 07:14:26;;;;;;;10.77;1.45;;;;;;;10.82;100.00;102038.78;5053785;28;20068;-66
2022/10/08 07:16:52;;;;;;;7.75;1.27;;;;;;;11.03;100.00;102046.19;5054230;28;20147;-64
2022/10/08 07:19:17;;;;;;;8.95;1.48;;;;;;;11.21;100.00;102046.63;5053506;28;20037;-68
2022/10/08 07:21:42;;;;;;;8.30;1.33;;;;;;;11.25;100.00;102046.28;5053499;28;20033;-72
2022/10/08 07:24:08;;;;;;;10.88;1.48;;;;;;;11.25;100.00;102061.44;5054114;28;20065;-69
2022/10/08 07:26:33;;;;;;;4.50;1.38;;;;;;;11.14;100.00;102061.34;5053388;28;20060;-70
2022/10/08 07:29:03;;;;;;;6.55;1.60;;;;;;;11.06;100.00;102073.44;5053335;28;20052;-67
2022/10/08 07:31:31;;;;;;;9.38;1.75;;;;;;;10.91;100.00;102075.41;5068606;28;20029;-67
2022/10/08 07:33:58;;;;;;;11.15;1.80;;;;;;;10.88;100.00;102080.97;5052587;28;20033;-67
2022/10/08 07:36:24;;;;;;;6.03;1.20;;;;;;;10.93;100.00;102077.97;5053183;28;20537;-69
2022/10/08 07:38:58;;;;;;;10.93;1.40;;;;;;;10.97;100.00;102089.25;5053253;28;20043;-67
2022/10/08 07:41:24;;;;;;;6.20;1.60;;;;;;;11.02;100.00;102095.09;5052943;28;20485;-69
2022/10/08 07:43:51;;;;;;;5.85;1.45;;;;;;;11.10;100.00;102100.69;5051784;28;20044;-82
2022/10/08 07:46:17;;;;;;;9.35;1.35;;;;;;;11.23;100.00;102093.50;5053539;28;20063;-80
2022/10/08 07:48:42;;;;;;;8.90;1.73;;;;;;;11.36;100.00;102093.47;5053080;28;20493;-76
2022/10/08 07:51:17;;;;;;;9.50;1.60;;;;;;;11.44;100.00;102103.56;5053489;28;20040;-80
2022/10/08 07:53:43;;;;;;;6.40;1.13;;;;;;;11.55;100.00;102100.09;5052297;28;20029;-77
2022/10/08 07:56:11;;;;;;;5.65;1.42;;;;;;;11.65;100.00;102109.09;5053653;28;20029;-82
2022/10/08 07:58:37;;;;;;;5.97;1.33;;;;;;;11.77;100.00;102110.00;5054306;28;20101;-82
2022/10/08 08:01:05;;;;;;;8.70;1.52;;;;;;;11.92;99.45;102118.66;5053834;28;20112;-80
2022/10/08 08:03:31;;;;;;;7.75;1.40;;;;;;;12.02;100.00;102124.16;5053400;28;20044;-78
2022/10/08 08:06:08;;;;;;;12.48;3.00;;;;;;;12.15;99.80;102115.09;5052996;28;20037;-82
2022/10/08 08:08:35;;;;;;;7.80;1.40;;;;;;;12.29;95.23;102137.22;5053299;28;20594;-80
2022/10/08 08:11:02;;;;;;;6.07;1.50;;;;;;;12.38;94.79;102127.63;5053833;28;20041;-79
2022/10/08 08:13:29;;;;;;;7.10;1.40;;;;;;;12.50;94.39;102130.19;5053952;28;20033;-80
2022/10/08 08:15:58;;;;;;;8.20;1.70;;;;;;;12.62;93.87;102135.53;5055430;28;20082;-83
2022/10/08 08:18:27;;;;;;;8.85;1.60;;;;;;;12.86;94.91;102146.09;5054538;28;20025;-80
2022/10/08 08:21:04;;;;;;;3.90;1.27;;;;;;;13.18;91.35;102151.53;5054594;28;20395;-81
2022/10/08 08:23:30;;;;;;;8.70;2.00;;;;;;;13.36;90.20;102148.34;5058165;28;20037;-81
2022/10/08 08:26:00;;;;;;;8.10;1.60;;;;;;;13.55;90.74;102147.69;5057097;28;20465;-79
2022/10/08 08:28:25;;;;;;;6.53;1.30;;;;;;;13.68;89.60;102150.22;5057253;28;20048;-82
2022/10/08 08:30:50;;;;;;;3.13;1.00;;;;;;;13.91;87.06;102154.50;5038841;28;20484;-82
2022/10/08 08:33:16;;;;;;;9.63;1.42;;;;;;;14.16;85.11;102167.63;5056864;28;20079;-83
2022/10/08 08:35:50;;;;;;;7.35;1.55;;;;;;;14.68;85.94;102173.88;5055740;28;20033;-82
2022/10/08 08:38:15;;;;;;;11.13;1.98;;;;;;;15.24;81.51;102169.00;5056746;28;20028;-81
2022/10/08 08:40:40;;;;;;;5.60;1.40;;;;;;;16.23;73.07;102182.34;5038834;28;20033;-80
2022/10/08 08:43:06;;;;;;;9.27;1.52;;;;;;;17.42;68.50;102179.06;5056753;28;20037;-81
2022/10/08 08:45:35;;;;;;;7.18;1.30;;;;;;;18.64;63.76;102178.41;5056742;28;20382;-81
2022/10/08 08:48:14;;;;;;;6.55;1.25;;;;;;;19.53;55.68;102195.13;5056670;28;20029;-81
2022/10/08 08:50:42;;;;;;;8.43;1.77;;;;;;;19.82;53.31;102201.13;5056924;28;20115;-80
2022/10/08 08:53:09;;;;;;;8.30;1.95;;;;;;;20.29;51.38;102197.75;5055028;28;20035;-80
2022/10/08 08:55:40;;;;;;;9.35;1.60;;;;;;;20.20;51.92;102198.78;5056123;28;20029;-80
2022/10/08 08:58:25;;;;;;;;;;;;;;;20.18;51.89;102215.16;5057373;28;20086;-81
2022/10/08 09:01:12;;;;;;;5.43;1.33;;;;;;;20.36;48.16;102209.56;5056719;28;20024;-80
2022/10/08 09:03:42;;;;;;;11.75;1.58;;;;;;;18.80;51.38;102218.09;5055870;28;20063;-80
2022/10/08 09:06:13;;;;;;;9.45;1.50;;;;;;;17.06;57.16;102216.63;5056601;28;20021;-80
2022/10/08 09:08:44;;;;;;;10.83;1.80;;;;;;;16.97;64.71;102213.00;5056648;28;20025;-81
2022/10/08 09:11:11;;;;;;;;;;;;;;;17.04;63.49;102221.31;5057179;28;20734;-78
2022/10/08 09:13:59;;;;;;;6.03;1.58;;;;;;;16.84;61.90;102228.56;5055798;28;20325;-79
2022/10/08 09:16:27;;;;;;;12.50;1.60;;;;;;;17.13;63.58;102228.50;5071376;28;20036;-81
2022/10/08 09:18:53;;;;;;;6.43;2.00;;;;;;;18.29;54.61;102231.41;5055989;28;20057;-81
2022/10/08 09:21:19;;;;;;;6.90;1.23;;;;;;;18.54;56.54;102234.28;5056176;28;20051;-78
2022/10/08 09:23:45;;;;;;;7.05;1.40;;;;;;;19.12;53.92;102237.34;5055696;28;20473;-80
2022/10/08 09:26:20;;;;;;;6.55;1.63;;;;;;;19.69;50.17;102248.34;5055839;28;20033;-82
2022/10/08 09:28:51;;;;;;;6.70;1.52;;;;;;;19.97;48.94;102247.22;5071428;28;20037;-80
2022/10/08 09:31:25;;;;;;;14.13;2.05;;;;;;;19.83;50.49;102256.84;5055990;28;20029;-81
2022/10/08 09:33:53;;;;;;;6.00;1.42;;;;;;;20.36;49.57;102255.53;5055887;28;20127;-81
2022/10/08 09:36:35;;;;;;;10.90;1.73;;;;;;;20.81;48.50;102258.72;5055811;28;20032;-83
2022/10/08 09:39:03;;;;;;;10.30;1.50;;;;;;;21.19;47.01;102252.66;5055820;28;20025;-79
2022/10/08 09:41:29;;;;;;;10.30;1.50;;;;;;;21.26;46.09;102257.19;5056747;28;20025;-80
2022/10/08 09:44:20;;;;;;;11.13;1.60;;;;;;;20.49;47.03;102260.41;5055589;28;20079;-78
2022/10/08 09:46:47;;;;;;;5.97;1.40;;;;;;;20.44;47.49;102265.47;5056069;28;20095;-77
2022/10/08 09:49:31;;;;;;;10.77;2.00;;;;;;;20.96;46.95;102264.25;5055238;28;20465;-78
2022/10/08 09:52:06;;;;;;;9.20;1.50;;;;;;;21.44;46.67;102259.66;5055514;28;20064;-78
2022/10/08 09:54:41;;;;;;;10.65;2.10;;;;;;;20.85;46.21;102267.31;5054648;28;20377;-75
2022/10/08 09:57:06;;;;;;;7.78;1.35;;;;;;;20.52;46.67;102286.25;5055096;28;20068;-77
2022/10/08 09:59:39;;;;;;;5.22;1.30;;;;;;;19.74;48.80;102278.38;5053837;28;20037;-72
2022/10/08 10:02:29;;;;;;;11.57;2.25;;;;;;;19.12;50.54;102278.66;5055334;28;20048;-72
2022/10/08 10:04:56;;;;;;;11.73;2.05;;;;;;;18.98;54.49;102277.38;5055342;28;20475;-71
2022/10/08 10:07:22;;;;;;;7.80;1.75;;;;;;;18.89;52.48;102283.75;5053704;28;20082;-70
2022/10/08 10:09:57;;;;;;;8.55;1.80;;;;;;;18.70;54.35;102278.53;5054924;28;20029;-71
2022/10/08 10:12:35;;;;;;;4.45;1.50;;;;;;;18.18;52.39;102288.19;5070964;28;20328;-70
2022/10/08 10:15:13;;;;;;;10.55;1.60;;;;;;;17.33;56.28;102292.97;5055457;28;20036;-71
2022/10/08 10:17:55;;;;;;;5.75;1.67;;;;;;;16.54;58.33;102293.16;5054599;28;20035;-71
2022/10/08 10:20:27;;;;;;;5.60;1.05;;;;;;;16.27;59.14;102301.06;5054686;28;20114;-72
2022/10/08 10:23:01;;;;;;;8.00;1.42;;;;;;;15.87;65.58;102300.19;5055121;28;20029;-71
2022/10/08 10:25:29;;;;;;;9.38;1.60;;;;;;;15.78;68.03;102301.88;5055326;28;20031;-72
2022/10/08 10:28:03;;;;;;;5.88;1.58;;;;;;;16.13;68.42;102302.34;5054644;28;20037;-72
2022/10/08 10:30:33;;;;;;;12.57;1.45;;;;;;;15.91;67.58;102311.50;5054622;28;20113;-73
2022/10/08 10:33:08;;;;;;;6.97;1.65;;;;;;;15.36;71.15;102314.53;5053316;28;20091;-73
2022/10/08 10:35:43;;;;;;;4.40;1.38;;;;;;;15.10;70.26;102315.81;5054809;28;20524;-72
2022/10/08 10:38:14;;;;;;;11.27;1.70;;;;;;;14.98;71.13;102319.56;5057579;28;20029;-78
2022/10/08 10:40:49;;;;;;;14.80;2.00;;;;;;;14.76;71.63;102318.75;5055191;28;20056;-78
2022/10/08 10:43:29;;;;;;;12.40;2.17;;;;;;;14.79;76.20;102322.97;5054097;28;20098;-79
2022/10/08 10:46:08;;;;;;;10.00;1.48;;;;;;;15.06;74.99;102319.78;5054918;28;20468;-80
2022/10/08 10:48:33;;;;;;;10.70;1.60;;;;;;;15.33;72.93;102316.50;5055064;28;20036;-79
2022/10/08 10:51:14;;;;;;;6.50;1.60;;;;;;;15.47;68.58;102331.38;5055576;28;20041;-78
2022/10/08 10:53:46;;;;;;;11.05;1.60;;;;;;;15.41;68.94;102331.09;5054499;28;20033;-78
2022/10/08 10:56:14;;;;;;;;;;;;;;;15.05;67.36;102334.16;5055144;28;20029;-78
2022/10/08 10:58:45;;;;;;;6.53;1.60;;;;;;;14.60;69.87;102329.88;5054396;28;19952;-76
2022/10/08 11:01:10;;;;;;;8.68;1.50;;;;;;;14.32;68.57;102339.34;5053861;28;20116;-81
2022/10/08 11:04:03;;;;;;;7.43;2.22;;;;;;;14.04;68.89;102328.22;5054900;28;20087;-80
2022/10/08 11:07:06;;;;;;;9.18;1.73;;;;;;;13.81;70.07;102337.28;5054606;28;20053;-81
2022/10/08 11:09:46;;;;;;;6.80;1.10;;;;;;;13.71;72.37;102340.69;5060732;28;20032;-82
2022/10/08 11:12:38;;;;;;;19.63;1.80;;;;;;;13.86;71.03;102345.78;5055151;28;20079;-81
2022/10/08 11:15:28;;;;;;;7.18;1.35;;;;;;;14.14;71.35;102347.06;5052950;28;20025;-74
2022/10/08 11:18:29;;;;;;;5.88;1.50;;;;;;;14.39;70.41;102348.59;5053533;28;20124;-74
2022/10/08 11:21:21;;;;;;;9.82;1.80;;;;;;;14.55;70.17;102347.28;5043046;28;20029;-77
2022/10/08 11:24:12;;;;;;;9.68;2.13;;;;;;;14.63;72.90;102352.91;5051493;28;20405;-74
2022/10/08 11:26:49;;;;;;;7.55;1.50;;;;;;;14.77;69.57;102347.22;5064674;28;20397;-74
2022/10/08 11:29:14;;;;;;;4.32;1.58;;;;;;;15.01;67.26;102346.09;5053866;28;20103;-74
2022/10/08 11:31:49;;;;;;;13.23;1.88;;;;;;;15.01;66.52;102356.81;5053750;28;20116;-75
2022/10/08 11:34:27;;;;;;;5.45;1.50;;;;;;;14.70;70.83;102346.03;5052483;28;20021;-74
2022/10/08 11:37:10;;;;;;;8.00;1.50;;;;;;;14.39;71.21;102359.28;5053607;28;20029;-77
2022/10/08 11:39:46;;;;;;;6.65;1.70;;;;;;;14.29;72.02;102350.31;5053993;28;20037;-76